createdAt,value
2023-05-24T00:01:20.014Z,26.30
2023-05-24T00:03:48.489Z,26.30
2023-05-24T00:06:17.092Z,26.30
2023-05-24T00:08:45.498Z,26.30
2023-05-24T00:11:14.301Z,26.30
2023-05-24T00:13:42.740Z,26.30
2023-05-24T00:16:11.395Z,26.20
2023-05-24T00:18:40.117Z,26.20
2023-05-24T00:21:09.399Z,26.20
2023-05-24T00:23:38.705Z,26.20
2023-05-24T00:26:07.556Z,26.20
2023-05-24T00:28:36.867Z,26.20
2023-05-24T00:31:05.437Z,26.20
2023-05-24T00:33:37.404Z,26.20
2023-05-24T00:36:05.735Z,26.20
2023-05-24T00:38:34.205Z,26.20
2023-05-24T00:41:02.649Z,26.20
2023-05-24T00:43:31.266Z,26.20
2023-05-24T00:46:22.147Z,26.20
2023-05-24T00:48:51.647Z,26.20
2023-05-24T00:51:20.395Z,26.20
2023-05-24T00:53:50.617Z,26.20
2023-05-24T00:56:19.431Z,26.20
2023-05-24T00:58:48.759Z,26.20
2023-05-24T01:01:18.214Z,26.30
2023-05-24T01:03:47.044Z,26.20
2023-05-24T01:06:18.084Z,26.20
2023-05-24T01:09:17.824Z,26.20
2023-05-24T01:12:09.799Z,26.20
2023-05-24T01:15:02.764Z,26.20
2023-05-24T01:17:54.319Z,26.20
2023-05-24T01:20:25.401Z,26.20
2023-05-24T01:23:18.481Z,26.20
2023-05-24T01:26:04.105Z,26.20
2023-05-24T01:28:35.010Z,26.20
2023-05-24T01:31:04.851Z,26.20
2023-05-24T01:33:43.442Z,26.20
2023-05-24T01:36:12.276Z,26.20
2023-05-24T01:38:41.690Z,26.10
2023-05-24T01:41:36.996Z,26.10
2023-05-24T01:44:10.827Z,26.10
2023-05-24T01:46:40.147Z,26.10
2023-05-24T01:49:18.459Z,26.10
2023-05-24T01:51:54.633Z,26.10
2023-05-24T01:54:27.208Z,26.10
2023-05-24T01:56:58.164Z,26.10
2023-05-24T01:59:29.592Z,26.10
2023-05-24T02:01:58.671Z,26.10
2023-05-24T02:04:27.592Z,26.20
2023-05-24T02:06:56.063Z,26.20
2023-05-24T02:09:24.470Z,26.20
2023-05-24T02:11:53.668Z,26.20
2023-05-24T02:14:22.349Z,26.20
2023-05-24T02:16:51.102Z,26.20
2023-05-24T02:19:20.588Z,26.20
2023-05-24T02:21:48.929Z,26.20
2023-05-24T02:24:17.618Z,26.20
2023-05-24T02:26:46.138Z,26.20
2023-05-24T02:29:14.606Z,26.20
2023-05-24T02:31:43.163Z,26.20
2023-05-24T02:34:11.349Z,26.20
2023-05-24T02:36:39.820Z,26.10
2023-05-24T02:39:08.197Z,26.10
2023-05-24T02:41:36.718Z,26.10
2023-05-24T02:44:05.091Z,26.10
2023-05-24T02:46:33.585Z,26.10
2023-05-24T02:49:02.147Z,26.10
2023-05-24T02:51:30.561Z,26.10
2023-05-24T02:53:59.120Z,26.10
2023-05-24T02:56:27.462Z,26.10
2023-05-24T02:58:56.981Z,26.10
2023-05-24T03:01:25.575Z,26.10
2023-05-24T03:03:57.661Z,26.10
2023-05-24T03:06:27.721Z,26.10
2023-05-24T03:08:57.141Z,26.10
2023-05-24T03:11:26.833Z,26.10
2023-05-24T03:13:57.593Z,26.10
2023-05-24T03:16:26.075Z,26.00
2023-05-24T03:18:54.457Z,26.00
2023-05-24T03:21:23.096Z,25.90
2023-05-24T03:23:51.678Z,25.80
2023-05-24T03:26:20.162Z,25.70
2023-05-24T03:28:48.570Z,25.80
2023-05-24T03:31:16.911Z,25.80
2023-05-24T03:33:45.605Z,25.70
2023-05-24T03:36:14.266Z,25.90
2023-05-24T03:38:42.603Z,25.80
2023-05-24T03:41:11.068Z,25.90
2023-05-24T03:43:39.746Z,26.00
2023-05-24T03:46:13.535Z,26.00
2023-05-24T03:48:43.358Z,25.90
2023-05-24T03:51:11.771Z,25.80
2023-05-24T03:53:40.258Z,25.90
2023-05-24T03:56:08.503Z,25.80
2023-05-24T03:58:38.780Z,25.70
2023-05-24T04:01:07.486Z,25.90
2023-05-24T04:03:36.209Z,25.70
2023-05-24T04:06:05.766Z,25.60
2023-05-24T04:08:34.251Z,25.70
2023-05-24T04:11:02.758Z,25.70
2023-05-24T04:13:31.341Z,25.70
2023-05-24T04:15:59.844Z,25.80
2023-05-24T04:18:28.326Z,25.80
2023-05-24T04:20:56.841Z,25.80
2023-05-24T04:23:25.320Z,25.80
2023-05-24T04:25:53.744Z,25.80
2023-05-24T04:28:22.228Z,25.90
2023-05-24T04:30:51.737Z,25.80
2023-05-24T04:33:20.325Z,25.90
2023-05-24T04:35:48.754Z,25.80
2023-05-24T04:38:17.096Z,25.70
2023-05-24T04:40:45.708Z,25.80
2023-05-24T04:43:14.134Z,25.70
2023-05-24T04:45:42.529Z,25.70
2023-05-24T04:48:10.917Z,25.80
2023-05-24T04:50:39.447Z,25.90
2023-05-24T04:53:08.032Z,25.70
2023-05-24T04:55:36.435Z,25.60
2023-05-24T04:58:04.962Z,25.70
2023-05-24T05:00:33.377Z,25.60
2023-05-24T05:03:01.864Z,25.80
2023-05-24T05:05:30.267Z,25.70
2023-05-24T05:07:58.871Z,25.60
2023-05-24T05:10:27.432Z,25.60
2023-05-24T05:12:55.990Z,25.60
2023-05-24T05:15:25.299Z,25.70
2023-05-24T05:17:53.675Z,25.70
2023-05-24T05:20:23.546Z,25.60
2023-05-24T05:22:52.268Z,25.70
2023-05-24T05:25:21.069Z,25.60
2023-05-24T05:27:49.471Z,25.50
2023-05-24T05:30:18.582Z,25.50
2023-05-24T05:32:47.319Z,25.60
2023-05-24T05:35:15.757Z,25.50
2023-05-24T05:37:44.024Z,25.60
2023-05-24T05:40:12.974Z,25.50
2023-05-24T05:42:41.376Z,25.50
2023-05-24T05:45:09.964Z,25.40
2023-05-24T05:47:38.422Z,25.50
2023-05-24T05:50:07.723Z,25.50
2023-05-24T05:52:37.133Z,25.50
2023-05-24T05:55:06.137Z,25.50
2023-05-24T05:57:34.623Z,25.50
2023-05-24T06:00:03.339Z,25.70
2023-05-24T06:02:40.216Z,25.70
2023-05-24T06:05:09.875Z,25.70
2023-05-24T06:07:38.268Z,25.70
2023-05-24T06:10:07.398Z,25.40
2023-05-24T06:12:35.723Z,25.30
2023-05-24T06:15:04.272Z,25.30
2023-05-24T06:17:32.559Z,25.60
2023-05-24T06:20:01.344Z,25.60
2023-05-24T06:22:29.829Z,25.70
2023-05-24T06:24:58.296Z,25.70
2023-05-24T06:27:26.647Z,25.70
2023-05-24T06:29:55.076Z,25.70
2023-05-24T06:32:23.576Z,25.70
2023-05-24T06:34:52.092Z,25.70
2023-05-24T06:37:20.378Z,25.70
2023-05-24T06:39:48.807Z,25.70
2023-05-24T06:42:17.234Z,25.70
2023-05-24T06:44:47.647Z,25.70
2023-05-24T06:47:16.545Z,25.80
2023-05-24T06:49:45.263Z,25.70
2023-05-24T06:52:13.940Z,25.80
2023-05-24T06:54:42.739Z,25.80
2023-05-24T06:57:12.431Z,25.90
2023-05-24T06:59:41.417Z,25.90
2023-05-24T07:02:10.432Z,26.00
2023-05-24T07:04:39.319Z,26.00
2023-05-24T07:07:10.658Z,26.00
2023-05-24T07:09:40.836Z,26.00
2023-05-24T07:12:10.274Z,26.00
2023-05-24T07:14:39.383Z,25.90
2023-05-24T07:17:08.332Z,26.00
2023-05-24T07:19:36.878Z,26.00
2023-05-24T07:22:05.291Z,26.00
2023-05-24T07:24:33.744Z,25.90
2023-05-24T07:27:02.067Z,26.00
2023-05-24T07:29:30.642Z,25.90
2023-05-24T07:36:03.221Z,26.00
2023-05-24T07:38:31.942Z,26.10
2023-05-24T07:41:01.890Z,26.20
2023-05-24T07:43:30.679Z,26.20
2023-05-24T07:46:00.344Z,26.30
2023-05-24T07:48:28.991Z,26.20
2023-05-24T07:50:57.487Z,26.30
2023-05-24T07:53:25.932Z,26.40
2023-05-24T07:55:57.074Z,26.50
2023-05-24T07:58:25.506Z,26.50
2023-05-24T08:00:53.803Z,26.50
2023-05-24T08:03:22.463Z,26.60
2023-05-24T08:05:51.234Z,26.60
2023-05-24T08:08:19.511Z,26.70
2023-05-24T08:10:48.121Z,26.60
2023-05-24T08:13:16.582Z,26.70
2023-05-24T08:15:45.202Z,26.70
2023-05-24T08:18:14.785Z,26.50
2023-05-24T08:20:43.416Z,26.70
2023-05-24T08:23:11.923Z,26.70
2023-05-24T08:25:40.826Z,26.60
2023-05-24T08:28:09.483Z,26.60
2023-05-24T08:30:38.122Z,26.80
2023-05-24T08:33:06.584Z,26.80
2023-05-24T08:35:35.209Z,26.90
2023-05-24T08:38:03.564Z,26.60
2023-05-24T08:40:33.683Z,26.60
2023-05-24T08:43:03.324Z,26.90
2023-05-24T08:45:35.373Z,26.90
2023-05-24T08:48:07.050Z,26.90
2023-05-24T08:50:36.436Z,27.10
2023-05-24T08:53:08.938Z,27.10
2023-05-24T08:55:38.813Z,27.10
2023-05-24T08:58:07.889Z,27.00
2023-05-24T09:00:36.358Z,27.10
2023-05-24T09:03:07.259Z,27.30
2023-05-24T09:05:36.233Z,27.20
2023-05-24T09:08:05.524Z,27.30
2023-05-24T09:10:54.103Z,27.30
2023-05-24T09:13:24.793Z,27.40
2023-05-24T09:15:54.629Z,27.50
2023-05-24T09:18:24.378Z,27.60
2023-05-24T09:20:53.230Z,27.50
2023-05-24T09:23:23.504Z,27.60
2023-05-24T09:25:51.990Z,27.60
2023-05-24T09:28:21.005Z,27.70
2023-05-24T09:31:06.315Z,27.70
2023-05-24T09:33:36.956Z,27.60
2023-05-24T09:36:06.519Z,27.40
2023-05-24T09:38:35.018Z,27.50
2023-05-24T09:41:08.237Z,27.70
2023-05-24T09:43:49.405Z,27.60
2023-05-24T09:46:19.575Z,27.80
2023-05-24T09:49:12.857Z,27.70
2023-05-24T09:51:41.296Z,27.70
2023-05-24T09:54:13.292Z,27.70
2023-05-24T09:56:43.496Z,27.70
2023-05-24T09:59:12.077Z,28.10
2023-05-24T10:01:40.715Z,28.00
2023-05-24T10:04:15.516Z,28.10
2023-05-24T10:06:44.922Z,28.10
2023-05-24T10:09:13.678Z,28.20
2023-05-24T10:11:43.050Z,28.20
2023-05-24T10:14:13.558Z,28.20
2023-05-24T10:16:46.814Z,28.30
2023-05-24T10:19:16.629Z,28.50
2023-05-24T10:21:46.173Z,28.40
2023-05-24T10:24:18.135Z,28.30
2023-05-24T10:26:47.509Z,28.50
2023-05-24T10:29:28.820Z,28.60
2023-05-24T10:31:58.701Z,28.70
2023-05-24T10:34:28.324Z,28.70
2023-05-24T10:36:58.405Z,28.60
2023-05-24T10:39:27.288Z,28.80
2023-05-24T10:41:58.697Z,28.80
2023-05-24T10:44:30.545Z,29.00
2023-05-24T10:47:26.895Z,28.90
2023-05-24T10:49:58.799Z,28.90
2023-05-24T10:52:37.392Z,28.90
2023-05-24T10:55:08.696Z,28.90
2023-05-24T10:57:38.248Z,28.90
2023-05-24T11:00:33.949Z,29.00
2023-05-24T11:03:07.361Z,29.20
2023-05-24T11:05:48.829Z,29.10
2023-05-24T11:08:41.737Z,29.10
2023-05-24T11:13:46.977Z,29.10
2023-05-24T11:16:45.672Z,29.00
2023-05-24T11:19:22.071Z,29.00
2023-05-24T11:21:52.944Z,29.10
2023-05-24T11:24:22.599Z,29.20
2023-05-24T11:26:52.029Z,29.30
2023-05-24T11:29:20.762Z,29.40
2023-05-24T11:31:57.894Z,29.40
2023-05-24T11:34:26.791Z,29.50
2023-05-24T11:36:55.699Z,29.60
2023-05-24T11:39:24.134Z,29.70
2023-05-24T11:41:55.197Z,29.70
2023-05-24T11:44:23.731Z,29.70
2023-05-24T11:46:58.967Z,29.70
2023-05-24T11:49:27.930Z,29.70
2023-05-24T11:51:59.044Z,29.70
2023-05-24T11:54:30.453Z,29.60
2023-05-24T11:56:59.738Z,29.60
2023-05-24T11:59:29.658Z,29.80
2023-05-24T12:02:08.169Z,29.80
2023-05-24T12:04:37.780Z,29.90
2023-05-24T12:07:11.208Z,29.90
2023-05-24T12:09:39.734Z,29.90
2023-05-24T12:12:08.411Z,29.70
2023-05-24T12:14:57.174Z,29.80
2023-05-24T12:17:26.079Z,29.70
2023-05-24T12:19:54.597Z,29.80
2023-05-24T12:22:29.090Z,29.80
2023-05-24T12:25:00.579Z,30.00
2023-05-24T12:27:29.547Z,30.10
2023-05-24T12:30:06.505Z,30.00
2023-05-24T12:32:35.194Z,30.00
2023-05-24T12:35:05.523Z,29.90
2023-05-24T12:37:34.813Z,29.90
2023-05-24T12:40:03.608Z,29.90
2023-05-24T12:42:32.985Z,29.80
2023-05-24T12:45:01.777Z,29.90
2023-05-24T12:47:30.551Z,30.10
2023-05-24T12:49:59.414Z,30.10
2023-05-24T12:52:28.200Z,30.00
2023-05-24T12:54:56.642Z,30.00
2023-05-24T12:57:25.054Z,29.90
2023-05-24T12:59:53.754Z,29.90
2023-05-24T13:02:24.608Z,29.90
2023-05-24T13:04:56.261Z,29.90
2023-05-24T13:07:25.196Z,29.80
2023-05-24T13:09:53.574Z,29.80
2023-05-24T13:12:22.508Z,29.70
2023-05-24T13:14:52.919Z,29.70
2023-05-24T13:17:22.286Z,29.60
2023-05-24T13:19:50.784Z,29.70
2023-05-24T13:22:19.223Z,29.90
2023-05-24T13:24:47.783Z,30.00
2023-05-24T13:27:16.127Z,30.10
2023-05-24T13:29:59.167Z,30.20
2023-05-24T13:32:29.244Z,30.40
2023-05-24T13:34:58.310Z,30.30
2023-05-24T13:37:26.997Z,30.30
2023-05-24T13:39:55.367Z,30.20
2023-05-24T13:42:23.930Z,30.20
2023-05-24T13:44:52.270Z,30.10
2023-05-24T13:47:31.227Z,30.10
2023-05-24T13:50:08.147Z,30.10
2023-05-24T13:52:36.640Z,30.20
2023-05-24T13:55:05.736Z,30.30
2023-05-24T14:00:08.765Z,30.50
2023-05-24T14:02:38.198Z,30.60
2023-05-24T14:05:24.769Z,30.60
2023-05-24T14:07:56.318Z,30.70
2023-05-24T14:10:25.007Z,30.70
2023-05-24T14:13:07.787Z,30.70
2023-05-24T14:15:42.862Z,30.80
2023-05-24T14:18:11.402Z,30.80
2023-05-24T14:20:40.660Z,31.00
2023-05-24T14:23:10.444Z,31.00
2023-05-24T14:25:38.905Z,31.10
2023-05-24T14:28:07.583Z,31.10
2023-05-24T14:30:36.062Z,31.10
2023-05-24T14:33:04.777Z,31.10
2023-05-24T14:35:33.976Z,31.20
2023-05-24T14:38:02.430Z,31.20
2023-05-24T14:40:30.759Z,31.20
2023-05-24T14:42:59.262Z,31.20
2023-05-24T14:45:27.834Z,31.00
2023-05-24T14:47:56.487Z,31.00
2023-05-24T14:50:27.936Z,30.90
2023-05-24T14:52:56.560Z,31.00
2023-05-24T14:55:25.044Z,31.00
2023-05-24T14:57:53.498Z,31.00
2023-05-24T15:00:23.280Z,30.90
2023-05-24T15:02:53.333Z,30.90
2023-05-24T15:05:23.417Z,31.00
2023-05-24T15:07:51.808Z,31.00
2023-05-24T15:10:20.263Z,31.00
2023-05-24T15:12:48.886Z,31.10
2023-05-24T15:15:17.553Z,31.20
2023-05-24T15:17:46.796Z,31.30
2023-05-24T15:20:15.573Z,31.20
2023-05-24T15:22:47.017Z,31.30
2023-05-24T15:25:15.511Z,31.40
2023-05-24T15:27:44.020Z,31.50
2023-05-24T15:30:20.810Z,31.60
2023-05-24T15:32:49.358Z,31.70
2023-05-24T15:35:18.570Z,31.60
2023-05-24T15:37:47.143Z,31.70
2023-05-24T15:40:15.813Z,31.70
2023-05-24T15:42:44.286Z,31.70
2023-05-24T15:45:13.006Z,31.80
2023-05-24T15:47:41.879Z,32.00
2023-05-24T15:50:10.941Z,32.00
2023-05-24T15:52:42.345Z,32.00
2023-05-24T15:55:11.244Z,32.10
2023-05-24T15:57:39.823Z,32.10
2023-05-24T16:00:09.094Z,32.20
2023-05-24T16:02:43.276Z,32.30
2023-05-24T16:05:12.080Z,32.40
2023-05-24T16:07:40.464Z,32.50
2023-05-24T16:10:09.236Z,32.80
2023-05-24T16:12:37.668Z,33.20
2023-05-24T16:15:06.728Z,33.70
2023-05-24T16:17:35.273Z,34.30
2023-05-24T16:20:04.138Z,34.90
2023-05-24T16:22:35.247Z,35.60
2023-05-24T16:25:03.840Z,36.20
2023-05-24T16:27:32.456Z,36.50
2023-05-24T16:30:00.899Z,37.00
2023-05-24T16:32:29.470Z,37.40
2023-05-24T16:34:58.249Z,37.80
2023-05-24T16:37:26.714Z,38.10
2023-05-24T16:39:55.347Z,37.70
2023-05-24T16:42:23.865Z,38.00
2023-05-24T16:44:52.128Z,38.40
2023-05-24T16:47:20.900Z,38.60
2023-05-24T16:49:50.508Z,38.80
2023-05-24T16:52:19.523Z,38.80
2023-05-24T16:54:47.773Z,38.80
2023-05-24T16:57:16.418Z,39.00
2023-05-24T16:59:44.879Z,39.10
2023-05-24T17:02:13.311Z,39.20
2023-05-24T17:04:41.738Z,39.40
2023-05-24T17:07:10.122Z,39.30
2023-05-24T17:09:38.652Z,39.30
2023-05-24T17:12:07.177Z,39.10
2023-05-24T17:14:35.574Z,37.70
2023-05-24T17:17:05.289Z,37.50
2023-05-24T17:19:35.424Z,37.50
2023-05-24T17:22:06.284Z,37.80
2023-05-24T17:24:37.863Z,38.00
2023-05-24T17:27:06.542Z,38.30
2023-05-24T17:29:35.274Z,38.50
2023-05-24T17:32:04.319Z,38.10
2023-05-24T17:34:33.202Z,38.20
2023-05-24T17:37:01.819Z,38.40
2023-05-24T17:39:30.152Z,38.10
2023-05-24T17:41:58.736Z,37.90
2023-05-24T17:44:27.193Z,37.60
2023-05-24T17:46:55.753Z,37.00
2023-05-24T17:49:33.205Z,36.60
2023-05-24T17:52:01.904Z,36.10
2023-05-24T17:54:30.303Z,35.50
2023-05-24T17:56:58.712Z,35.00
2023-05-24T17:59:27.393Z,34.50
2023-05-24T18:01:55.884Z,34.00
2023-05-24T18:04:24.378Z,33.50
2023-05-24T18:06:52.796Z,33.10
2023-05-24T18:09:21.940Z,32.70
2023-05-24T18:11:50.160Z,32.50
2023-05-24T18:14:21.744Z,32.30
2023-05-24T18:16:50.329Z,32.10
2023-05-24T18:19:18.882Z,31.90
2023-05-24T18:21:47.191Z,31.70
2023-05-24T18:24:15.938Z,31.60
2023-05-24T18:26:47.021Z,31.40
2023-05-24T18:29:15.749Z,31.30
2023-05-24T18:31:47.381Z,31.20
2023-05-24T18:34:16.335Z,31.00
2023-05-24T18:36:44.996Z,30.80
2023-05-24T18:39:13.655Z,30.70
2023-05-24T18:41:42.188Z,30.60
2023-05-24T18:44:10.832Z,30.60
2023-05-24T18:46:39.307Z,30.50
2023-05-24T18:49:07.960Z,30.50
2023-05-24T18:51:36.322Z,30.40
2023-05-24T18:54:05.240Z,30.30
2023-05-24T18:56:33.570Z,30.20
2023-05-24T18:59:03.573Z,30.20
2023-05-24T19:01:32.858Z,30.10
2023-05-24T19:04:01.640Z,30.10
2023-05-24T19:06:30.212Z,30.00
2023-05-24T19:08:58.928Z,30.00
2023-05-24T19:11:28.346Z,29.90
2023-05-24T19:13:56.800Z,29.90
2023-05-24T19:16:25.693Z,29.80
2023-05-24T19:18:54.154Z,29.70
2023-05-24T19:21:22.771Z,29.70
2023-05-24T19:23:51.185Z,29.60
2023-05-24T19:26:19.908Z,29.50
2023-05-24T19:28:57.791Z,29.50
2023-05-24T19:31:27.195Z,29.50
2023-05-24T19:34:00.561Z,29.50
2023-05-24T19:36:30.573Z,29.50
2023-05-24T19:38:59.358Z,29.40
2023-05-24T19:41:27.831Z,29.40
2023-05-24T19:43:56.962Z,29.40
2023-05-24T19:46:26.550Z,29.40
2023-05-24T19:48:55.072Z,29.40
2023-05-24T19:51:26.445Z,29.40
2023-05-24T19:53:54.877Z,29.40
2023-05-24T19:56:23.579Z,29.40
2023-05-24T19:58:52.234Z,29.30
2023-05-24T20:01:20.657Z,29.40
2023-05-24T20:03:49.491Z,29.30
2023-05-24T20:06:18.594Z,29.30
2023-05-24T20:08:47.444Z,29.30
2023-05-24T20:11:15.836Z,29.30
2023-05-24T20:13:44.369Z,29.30
2023-05-24T20:16:13.135Z,29.30
2023-05-24T20:18:41.500Z,29.30
2023-05-24T20:21:10.201Z,29.30
2023-05-24T20:23:51.119Z,29.30
2023-05-24T20:26:19.854Z,29.30
2023-05-24T20:28:48.364Z,29.30
2023-05-24T20:31:17.508Z,29.30
2023-05-24T20:33:46.229Z,29.20
2023-05-24T20:36:14.551Z,29.20
2023-05-24T20:38:43.175Z,29.20
2023-05-24T20:41:12.001Z,29.20
2023-05-24T20:43:40.490Z,29.20
2023-05-24T20:46:09.279Z,29.20
2023-05-24T20:48:37.772Z,29.10
2023-05-24T20:51:07.244Z,29.10
2023-05-24T20:53:35.754Z,29.10
2023-05-24T20:56:04.286Z,29.10
2023-05-24T20:58:32.793Z,29.10
2023-05-24T21:01:01.092Z,29.10
2023-05-24T21:03:29.739Z,29.10
2023-05-24T21:05:58.293Z,29.10
2023-05-24T21:08:26.699Z,29.10
2023-05-24T21:10:55.134Z,29.10
2023-05-24T21:13:23.693Z,29.10
2023-05-24T21:15:52.603Z,29.10
2023-05-24T21:18:20.923Z,29.10
2023-05-24T21:20:49.348Z,29.00
2023-05-24T21:23:18.170Z,29.00
2023-05-24T21:25:46.540Z,29.00
2023-05-24T21:28:15.093Z,29.00
2023-05-24T21:30:43.764Z,29.00
2023-05-24T21:33:12.285Z,29.00
2023-05-24T21:35:40.902Z,29.00
2023-05-24T21:38:09.737Z,29.00
2023-05-24T21:40:44.282Z,29.00
2023-05-24T21:43:12.889Z,29.00
2023-05-24T21:45:44.304Z,28.90
2023-05-24T21:48:13.104Z,28.90
2023-05-24T21:50:41.459Z,28.90
2023-05-24T21:53:10.065Z,28.90
2023-05-24T21:55:38.484Z,28.90
2023-05-24T21:58:07.248Z,28.90
2023-05-24T22:00:35.641Z,28.90
2023-05-24T22:03:04.166Z,28.90
2023-05-24T22:05:32.904Z,28.90
2023-05-24T22:08:01.372Z,28.90
2023-05-24T22:10:29.798Z,28.80
2023-05-24T22:12:58.147Z,28.80
2023-05-24T22:15:26.609Z,28.80
2023-05-24T22:17:55.325Z,28.80
2023-05-24T22:20:23.714Z,28.90
2023-05-24T22:22:52.384Z,28.80
2023-05-24T22:25:21.103Z,28.80
2023-05-24T22:27:50.062Z,28.80
2023-05-24T22:30:18.694Z,28.80
2023-05-24T22:32:47.397Z,28.80
2023-05-24T22:35:16.110Z,28.70
2023-05-24T22:37:44.546Z,28.70
2023-05-24T22:40:13.693Z,28.70
2023-05-24T22:42:42.217Z,28.70
2023-05-24T22:45:11.205Z,28.70
2023-05-24T22:47:42.493Z,28.70
2023-05-24T22:50:11.125Z,28.70
2023-05-24T22:52:39.561Z,28.70
2023-05-24T22:55:08.082Z,28.70
2023-05-24T22:57:36.598Z,28.70
2023-05-24T23:00:05.789Z,28.70
2023-05-24T23:02:34.108Z,28.70
2023-05-24T23:05:02.844Z,28.70
2023-05-24T23:07:31.302Z,28.70
2023-05-24T23:09:59.669Z,28.60
2023-05-24T23:12:28.028Z,28.60
2023-05-24T23:14:56.900Z,28.70
2023-05-24T23:17:25.340Z,28.60
2023-05-24T23:19:53.962Z,28.60
2023-05-24T23:22:22.606Z,28.60
2023-05-24T23:24:51.189Z,28.60
2023-05-24T23:27:20.027Z,28.60
2023-05-24T23:29:48.440Z,28.60
2023-05-24T23:32:16.654Z,28.60
2023-05-24T23:34:45.101Z,28.60
2023-05-24T23:37:13.771Z,28.60
2023-05-24T23:39:42.087Z,28.60
2023-05-24T23:42:10.398Z,28.60
2023-05-24T23:44:38.945Z,28.60
2023-05-24T23:47:07.494Z,28.60
2023-05-24T23:49:36.027Z,28.50
2023-05-24T23:52:04.706Z,28.50
2023-05-24T23:57:03.933Z,28.50
2023-05-24T23:59:32.263Z,28.40
